Terminal Aerodrome Forecast
Issued by NWS

Home | Current Version | Previous Version | Text Only | Print | Product List | Glossary Off
Versions: 1 2 3 4 5 6 7 8 9 10 11 12 13 14 15 16 17

000
FTUS43 KBIS 200600 AAA
TAFMOT
TAF AMD
KMOT 200639Z 2007/2106 25007KT P6SM FEW080 FEW120
     FM201300 26011KT P6SM VCSH SCT050 BKN070
     FM201600 28016G24KT P6SM SCT120
     FM201800 30024G31KT P6SM FEW060
     FM210100 28011KT P6SM SKC=

USA.gov is the U.S. government's official web portal to all federal, state and local government web resources and services.